createdAt,value
2022-12-25T00:00:00.603Z,884.3
2022-12-25T00:01:00.507Z,884.3
2022-12-25T00:02:00.516Z,884.3
2022-12-25T00:03:00.707Z,884.3
2022-12-25T00:04:00.732Z,884.3
2022-12-25T00:05:00.471Z,884.3
2022-12-25T00:06:00.578Z,884.3
2022-12-25T00:07:00.499Z,884.3
2022-12-25T00:08:00.404Z,884.2
2022-12-25T00:09:00.375Z,884.2
2022-12-25T00:10:00.428Z,884.2
2022-12-25T00:11:00.401Z,884.2
2022-12-25T00:12:00.639Z,884.2
2022-12-25T00:13:00.437Z,884.2
2022-12-25T00:14:00.472Z,884.2
2022-12-25T00:15:00.372Z,884.2
2022-12-25T00:16:00.811Z,884.2
2022-12-25T00:17:00.404Z,884.2
2022-12-25T00:18:00.621Z,884.2
2022-12-25T00:19:00.373Z,884.2
2022-12-25T00:20:00.435Z,884.2
2022-12-25T00:21:00.403Z,884.2
2022-12-25T00:22:00.433Z,884.2
2022-12-25T00:23:00.408Z,884.2
2022-12-25T00:24:00.766Z,884.2
2022-12-25T00:25:00.386Z,884.2
2022-12-25T00:26:00.441Z,884.2
2022-12-25T00:27:00.463Z,884.2
2022-12-25T00:28:00.615Z,884.2
2022-12-25T00:29:00.390Z,884.2
2022-12-25T00:30:00.666Z,884.2
2022-12-25T00:31:00.534Z,884.2
2022-12-25T00:32:00.726Z,884.1
2022-12-25T00:33:00.405Z,884.2
2022-12-25T00:34:00.440Z,884.1
2022-12-25T00:35:00.539Z,884.1
2022-12-25T00:36:00.677Z,884.2
2022-12-25T00:37:00.467Z,884.1
2022-12-25T00:38:00.412Z,884.1
2022-12-25T00:39:00.410Z,884.1
2022-12-25T00:40:00.382Z,884.1
2022-12-25T00:41:00.412Z,884.1
2022-12-25T00:42:00.637Z,884.1
2022-12-25T00:43:00.415Z,884.1
2022-12-25T00:44:00.458Z,884.1
2022-12-25T00:45:00.468Z,884.1
2022-12-25T00:46:00.551Z,884.0
2022-12-25T00:47:00.784Z,884.0
2022-12-25T00:48:00.562Z,884.0
2022-12-25T00:49:00.421Z,884.1
2022-12-25T00:50:00.404Z,884.0
2022-12-25T00:51:00.447Z,884.1
2022-12-25T00:52:00.435Z,884.0
2022-12-25T00:53:00.391Z,884.0
2022-12-25T00:54:00.614Z,884.0
2022-12-25T00:55:00.506Z,884.0
2022-12-25T00:56:00.442Z,884.0
2022-12-25T00:57:00.498Z,884.0
2022-12-25T00:58:00.372Z,884.0
2022-12-25T00:59:00.464Z,884.0
2022-12-25T01:00:00.684Z,884.0
2022-12-25T01:01:00.509Z,884.0
2022-12-25T01:02:00.738Z,884.0
2022-12-25T01:03:00.589Z,884.0
2022-12-25T01:04:00.385Z,884.0
2022-12-25T01:05:00.441Z,884.0
2022-12-25T01:06:00.597Z,884.0
2022-12-25T01:07:00.448Z,884.0
2022-12-25T01:08:00.433Z,884.0
2022-12-25T01:09:00.388Z,884.0
2022-12-25T01:10:00.431Z,884.0
2022-12-25T01:11:00.414Z,884.0
2022-12-25T01:12:00.572Z,883.9
2022-12-25T01:13:00.399Z,883.9
2022-12-25T01:14:00.438Z,884.0
2022-12-25T01:15:00.425Z,884.0
2022-12-25T01:16:00.474Z,884.0
2022-12-25T01:17:00.630Z,884.0
2022-12-25T01:18:05.662Z,884.0
2022-12-25T01:19:00.467Z,884.0
2022-12-25T01:20:00.680Z,884.0
2022-12-25T01:21:00.442Z,884.0
2022-12-25T01:22:00.806Z,884.0
2022-12-25T01:23:00.681Z,884.0
2022-12-25T01:24:00.979Z,884.0
2022-12-25T01:25:00.635Z,884.0
2022-12-25T01:26:00.613Z,884.0
2022-12-25T01:27:00.522Z,884.0
2022-12-25T01:28:00.589Z,884.0
2022-12-25T01:29:00.768Z,884.0
2022-12-25T01:30:00.932Z,884.0
2022-12-25T01:31:00.682Z,884.0
2022-12-25T01:32:01.036Z,884.0
2022-12-25T01:33:00.621Z,884.0
2022-12-25T01:34:00.462Z,884.0
2022-12-25T01:35:00.530Z,884.0
2022-12-25T01:36:00.524Z,884.1
2022-12-25T01:37:00.577Z,884.1
2022-12-25T01:38:00.487Z,884.1
2022-12-25T01:39:00.543Z,884.1
2022-12-25T01:40:00.427Z,884.1
2022-12-25T01:41:00.500Z,884.1
2022-12-25T01:42:00.618Z,884.1
2022-12-25T01:43:00.440Z,884.1
2022-12-25T01:44:00.473Z,884.1
2022-12-25T01:45:00.534Z,884.1
2022-12-25T01:46:00.569Z,884.1
2022-12-25T01:47:00.566Z,884.1
2022-12-25T01:48:00.577Z,884.0
2022-12-25T01:49:00.496Z,884.1
2022-12-25T01:50:00.365Z,884.0
2022-12-25T01:51:00.468Z,884.1
2022-12-25T01:52:00.432Z,884.0
2022-12-25T01:53:00.459Z,884.0
2022-12-25T01:54:00.821Z,884.0
2022-12-25T01:55:00.472Z,884.0
2022-12-25T01:56:00.382Z,884.1
2022-12-25T01:57:00.404Z,884.1
2022-12-25T01:58:00.399Z,884.1
2022-12-25T01:59:00.448Z,884.1
2022-12-25T02:00:00.563Z,884.1
2022-12-25T02:01:00.458Z,884.1
2022-12-25T02:02:00.613Z,884.1
2022-12-25T02:03:00.507Z,884.1
2022-12-25T02:04:00.426Z,884.1
2022-12-25T02:05:00.426Z,884.1
2022-12-25T02:06:00.550Z,884.1
2022-12-25T02:07:00.430Z,884.1
2022-12-25T02:08:00.468Z,884.1
2022-12-25T02:09:00.423Z,884.1
2022-12-25T02:10:00.437Z,884.1
2022-12-25T02:11:00.475Z,884.1
2022-12-25T02:12:00.607Z,884.1
2022-12-25T02:13:00.395Z,884.1
2022-12-25T02:14:00.400Z,884.1
2022-12-25T02:15:05.231Z,884.1
2022-12-25T02:16:00.450Z,884.1
2022-12-25T02:17:00.581Z,884.1
2022-12-25T02:18:00.694Z,884.1
2022-12-25T02:19:00.428Z,884.1
2022-12-25T02:20:00.410Z,884.1
2022-12-25T02:21:00.444Z,884.1
2022-12-25T02:22:00.451Z,884.1
2022-12-25T02:23:00.427Z,884.1
2022-12-25T02:24:00.640Z,884.2
2022-12-25T02:25:00.423Z,884.2
2022-12-25T02:26:00.417Z,884.1
2022-12-25T02:27:00.414Z,884.2
2022-12-25T02:28:00.405Z,884.2
2022-12-25T02:29:00.440Z,884.2
2022-12-25T02:30:00.554Z,884.2
2022-12-25T02:31:00.436Z,884.2
2022-12-25T02:32:00.769Z,884.2
2022-12-25T02:33:00.409Z,884.2
2022-12-25T02:34:00.419Z,884.2
2022-12-25T02:35:00.399Z,884.2
2022-12-25T02:36:00.603Z,884.2
2022-12-25T02:37:00.468Z,884.2
2022-12-25T02:38:00.471Z,884.2
2022-12-25T02:39:00.487Z,884.2
2022-12-25T02:40:00.574Z,884.3
2022-12-25T02:41:00.472Z,884.2
2022-12-25T02:42:00.604Z,884.2
2022-12-25T02:43:00.381Z,884.3
2022-12-25T02:44:00.418Z,884.3
2022-12-25T02:45:00.451Z,884.2
2022-12-25T02:46:00.471Z,884.2
2022-12-25T02:47:00.444Z,884.3
2022-12-25T02:48:00.527Z,884.3
2022-12-25T02:49:00.405Z,884.3
2022-12-25T02:50:00.402Z,884.3
2022-12-25T02:51:00.444Z,884.3
2022-12-25T02:52:00.393Z,884.3
2022-12-25T02:53:00.377Z,884.3
2022-12-25T02:54:00.552Z,884.3
2022-12-25T02:55:00.417Z,884.3
2022-12-25T02:56:00.432Z,884.4
2022-12-25T02:57:00.436Z,884.3
2022-12-25T02:58:00.404Z,884.4
2022-12-25T02:59:00.412Z,884.4
2022-12-25T03:00:00.655Z,884.4
2022-12-25T03:01:00.496Z,884.4
2022-12-25T03:02:00.632Z,884.4
2022-12-25T03:03:00.610Z,884.4
2022-12-25T03:04:00.436Z,884.4
2022-12-25T03:05:00.395Z,884.4
2022-12-25T03:06:00.560Z,884.4
2022-12-25T03:07:00.476Z,884.4
2022-12-25T03:08:00.512Z,884.4
2022-12-25T03:09:00.510Z,884.4
2022-12-25T03:10:00.395Z,884.4
2022-12-25T03:11:00.461Z,884.5
2022-12-25T03:12:00.581Z,884.5
2022-12-25T03:13:00.412Z,884.5
2022-12-25T03:14:00.405Z,884.5
2022-12-25T03:15:00.439Z,884.5
2022-12-25T03:16:00.458Z,884.5
2022-12-25T03:17:00.515Z,884.5
2022-12-25T03:18:00.569Z,884.5
2022-12-25T03:19:00.397Z,884.5
2022-12-25T03:20:00.405Z,884.6
2022-12-25T03:21:00.403Z,884.6
2022-12-25T03:22:00.406Z,884.6
2022-12-25T03:23:00.400Z,884.6
2022-12-25T03:24:00.521Z,884.6
2022-12-25T03:25:00.414Z,884.6
2022-12-25T03:26:00.471Z,884.6
2022-12-25T03:27:00.403Z,884.6
2022-12-25T03:28:00.431Z,884.6
2022-12-25T03:29:00.411Z,884.7
2022-12-25T03:30:00.551Z,884.7
2022-12-25T03:31:00.469Z,884.7
2022-12-25T03:32:00.550Z,884.7
2022-12-25T03:33:03.587Z,884.7
2022-12-25T03:34:00.424Z,884.7
2022-12-25T03:35:00.434Z,884.7
2022-12-25T03:36:00.561Z,884.7
2022-12-25T03:37:00.467Z,884.7
2022-12-25T03:38:00.457Z,884.7
2022-12-25T03:39:00.389Z,884.7
2022-12-25T03:40:00.365Z,884.7
2022-12-25T03:41:00.430Z,884.8
2022-12-25T03:42:00.585Z,884.7
2022-12-25T03:43:00.420Z,884.8
2022-12-25T03:44:00.408Z,884.8
2022-12-25T03:45:00.399Z,884.8
2022-12-25T03:46:00.535Z,884.8
2022-12-25T03:47:00.401Z,884.8
2022-12-25T03:48:00.595Z,884.7
2022-12-25T03:49:00.411Z,884.8
2022-12-25T03:50:00.393Z,884.8
2022-12-25T03:51:00.455Z,884.8
2022-12-25T03:52:00.536Z,884.7
2022-12-25T03:53:00.464Z,884.8
2022-12-25T03:54:00.523Z,884.7
2022-12-25T03:55:00.370Z,884.7
2022-12-25T03:56:00.389Z,884.7
2022-12-25T03:57:00.399Z,884.7
2022-12-25T03:58:00.406Z,884.7
2022-12-25T03:59:00.403Z,884.8
2022-12-25T04:00:00.605Z,884.8
2022-12-25T04:01:00.602Z,884.8
2022-12-25T04:02:00.612Z,884.8
2022-12-25T04:03:00.572Z,884.8
2022-12-25T04:04:00.494Z,884.8
2022-12-25T04:05:00.384Z,884.8
2022-12-25T04:06:00.563Z,884.8
2022-12-25T04:07:00.487Z,884.8
2022-12-25T04:08:00.431Z,884.8
2022-12-25T04:09:00.488Z,884.8
2022-12-25T04:10:00.507Z,884.9
2022-12-25T04:11:00.409Z,884.9
2022-12-25T04:12:02.583Z,884.9
2022-12-25T04:13:00.377Z,884.9
2022-12-25T04:14:00.440Z,884.9
2022-12-25T04:15:00.445Z,884.9
2022-12-25T04:16:00.566Z,884.9
2022-12-25T04:17:00.430Z,884.9
2022-12-25T04:18:00.575Z,884.9
2022-12-25T04:19:00.438Z,885.0
2022-12-25T04:20:00.415Z,884.9
2022-12-25T04:21:00.414Z,884.9
2022-12-25T04:22:00.442Z,885.0
2022-12-25T04:23:00.452Z,885.0
2022-12-25T04:24:00.511Z,885.0
2022-12-25T04:25:00.458Z,885.0
2022-12-25T04:26:00.462Z,885.0
2022-12-25T04:27:00.495Z,885.0
2022-12-25T04:28:00.445Z,885.0
2022-12-25T04:29:00.409Z,885.0
2022-12-25T04:30:00.638Z,885.0
2022-12-25T04:31:00.552Z,885.1
2022-12-25T04:32:00.406Z,885.1
2022-12-25T04:33:00.547Z,885.1
2022-12-25T04:34:00.398Z,885.1
2022-12-25T04:35:00.384Z,885.1
2022-12-25T04:36:00.650Z,885.1
2022-12-25T04:37:00.414Z,885.1
2022-12-25T04:38:00.378Z,885.1
2022-12-25T04:39:00.424Z,885.2
2022-12-25T04:40:00.423Z,885.2
2022-12-25T04:41:00.442Z,885.2
2022-12-25T04:42:00.558Z,885.2
2022-12-25T04:43:00.408Z,885.2
2022-12-25T04:44:00.398Z,885.2
2022-12-25T04:45:00.380Z,885.2
2022-12-25T04:46:00.497Z,885.2
2022-12-25T04:47:02.495Z,885.2
2022-12-25T04:48:00.575Z,885.2
2022-12-25T04:49:00.416Z,885.2
2022-12-25T04:50:00.438Z,885.3
2022-12-25T04:51:00.421Z,885.3
2022-12-25T04:52:00.381Z,885.3
2022-12-25T04:53:00.427Z,885.3
2022-12-25T04:54:00.569Z,885.3
2022-12-25T04:55:00.488Z,885.3
2022-12-25T04:56:00.423Z,885.3
2022-12-25T04:57:00.465Z,885.3
2022-12-25T04:58:00.440Z,885.3
2022-12-25T04:59:00.445Z,885.3
2022-12-25T05:00:00.526Z,885.4
2022-12-25T05:01:00.413Z,885.3
2022-12-25T05:02:00.532Z,885.3
2022-12-25T05:03:00.848Z,885.3
2022-12-25T05:04:00.651Z,885.3
2022-12-25T05:05:00.504Z,885.4
2022-12-25T05:06:00.683Z,885.4
2022-12-25T05:07:00.529Z,885.4
2022-12-25T05:08:00.473Z,885.4
2022-12-25T05:09:00.419Z,885.4
2022-12-25T05:10:00.448Z,885.4
2022-12-25T05:11:00.473Z,885.4
2022-12-25T05:12:00.599Z,885.4
2022-12-25T05:13:00.493Z,885.4
2022-12-25T05:14:00.415Z,885.4
2022-12-25T05:15:00.446Z,885.5
2022-12-25T05:16:00.479Z,885.5
2022-12-25T05:17:00.424Z,885.5
2022-12-25T05:18:00.542Z,885.5
2022-12-25T05:19:00.546Z,885.5
2022-12-25T05:20:00.414Z,885.5
2022-12-25T05:21:00.440Z,885.5
2022-12-25T05:22:00.442Z,885.5
2022-12-25T05:23:00.426Z,885.5
2022-12-25T05:24:00.574Z,885.6
2022-12-25T05:25:00.383Z,885.6
2022-12-25T05:26:00.432Z,885.6
2022-12-25T05:27:00.438Z,885.6
2022-12-25T05:28:00.380Z,885.6
2022-12-25T05:29:00.448Z,885.6
2022-12-25T05:30:00.532Z,885.6
2022-12-25T05:31:00.462Z,885.6
2022-12-25T05:32:00.413Z,885.6
2022-12-25T05:33:00.419Z,885.6
2022-12-25T05:34:00.492Z,885.7
2022-12-25T05:35:00.378Z,885.7
2022-12-25T05:36:00.628Z,885.7
2022-12-25T05:37:00.469Z,885.7
2022-12-25T05:38:00.519Z,885.7
2022-12-25T05:39:00.452Z,885.7
2022-12-25T05:40:00.498Z,885.7
2022-12-25T05:41:00.443Z,885.8
2022-12-25T05:42:00.563Z,885.8
2022-12-25T05:43:00.411Z,885.8
2022-12-25T05:44:00.410Z,885.8
2022-12-25T05:45:00.378Z,885.8
2022-12-25T05:46:00.414Z,885.8
2022-12-25T05:47:00.469Z,885.8
2022-12-25T05:48:00.531Z,885.8
2022-12-25T05:49:00.432Z,885.8
2022-12-25T05:50:00.525Z,885.8
2022-12-25T05:51:00.406Z,885.8
2022-12-25T05:52:00.391Z,885.8
2022-12-25T05:53:07.711Z,885.9
2022-12-25T05:54:00.935Z,885.8
2022-12-25T05:55:00.700Z,885.9
2022-12-25T05:56:00.700Z,885.9
2022-12-25T05:57:00.380Z,885.9
2022-12-25T05:58:00.374Z,885.9
2022-12-25T05:59:00.382Z,885.8
2022-12-25T06:00:00.549Z,885.8
2022-12-25T06:01:00.426Z,885.8
2022-12-25T06:02:00.648Z,885.9
2022-12-25T06:03:00.590Z,885.8
2022-12-25T06:04:00.536Z,885.9
2022-12-25T06:05:00.547Z,885.9
2022-12-25T06:06:00.565Z,885.8
2022-12-25T06:07:00.493Z,885.9
2022-12-25T06:08:00.428Z,885.9
2022-12-25T06:09:00.374Z,885.9
2022-12-25T06:10:00.491Z,885.9
2022-12-25T06:11:00.474Z,886.0
2022-12-25T06:12:00.593Z,885.9
2022-12-25T06:13:00.482Z,885.9
2022-12-25T06:14:00.488Z,885.9
2022-12-25T06:15:00.465Z,885.9
2022-12-25T06:16:00.451Z,885.9
2022-12-25T06:17:00.544Z,885.9
2022-12-25T06:18:00.614Z,885.9
2022-12-25T06:19:00.402Z,885.9
2022-12-25T06:20:00.383Z,885.9
2022-12-25T06:21:00.474Z,885.9
2022-12-25T06:22:00.379Z,885.9
2022-12-25T06:23:00.405Z,885.9
2022-12-25T06:24:00.618Z,885.9
2022-12-25T06:25:00.380Z,885.9
2022-12-25T06:26:00.381Z,885.8
2022-12-25T06:27:00.376Z,885.8
2022-12-25T06:28:00.566Z,885.9
2022-12-25T06:29:00.521Z,885.9
2022-12-25T06:30:00.566Z,885.9
2022-12-25T06:31:00.462Z,885.9
2022-12-25T06:32:00.738Z,885.9
2022-12-25T06:33:00.386Z,885.9
2022-12-25T06:34:00.402Z,885.9
2022-12-25T06:35:00.379Z,885.9
2022-12-25T06:36:00.600Z,885.9
2022-12-25T06:37:00.595Z,885.9
2022-12-25T06:38:00.414Z,885.9
2022-12-25T06:39:00.441Z,885.9
2022-12-25T06:40:00.463Z,885.9
2022-12-25T06:41:00.510Z,885.9
2022-12-25T06:42:00.541Z,885.9
2022-12-25T06:43:00.407Z,885.9
2022-12-25T06:44:00.393Z,885.9
2022-12-25T06:45:00.416Z,885.9
2022-12-25T06:46:00.463Z,885.9
2022-12-25T06:47:00.431Z,885.9
2022-12-25T06:48:00.567Z,885.9
2022-12-25T06:49:00.427Z,885.9
2022-12-25T06:50:00.441Z,885.9
2022-12-25T06:51:00.376Z,886.0
2022-12-25T06:52:00.568Z,885.9
2022-12-25T06:53:00.387Z,885.9
2022-12-25T06:54:00.605Z,885.9
2022-12-25T06:55:00.380Z,885.9
2022-12-25T06:56:00.428Z,886.0
2022-12-25T06:57:00.406Z,885.9
2022-12-25T06:58:00.406Z,885.9
2022-12-25T06:59:00.445Z,885.9
2022-12-25T07:00:00.551Z,885.9
2022-12-25T07:01:00.453Z,885.9
2022-12-25T07:02:00.657Z,885.9
2022-12-25T07:03:00.496Z,885.9
2022-12-25T07:04:00.382Z,885.9
2022-12-25T07:05:00.503Z,885.9
2022-12-25T07:06:00.604Z,885.9
2022-12-25T07:07:06.222Z,885.9
2022-12-25T07:08:00.465Z,885.9
2022-12-25T07:09:00.407Z,885.9
2022-12-25T07:10:00.418Z,885.9
2022-12-25T07:11:00.375Z,885.9
2022-12-25T07:12:00.652Z,885.9
2022-12-25T07:13:00.424Z,885.9
2022-12-25T07:14:00.413Z,886.0
2022-12-25T07:15:00.372Z,885.9
2022-12-25T07:16:00.522Z,885.9
2022-12-25T07:17:00.576Z,885.9
2022-12-25T07:18:00.563Z,885.9
2022-12-25T07:19:00.413Z,886.0
2022-12-25T07:20:00.383Z,886.0
2022-12-25T07:21:00.394Z,886.0
2022-12-25T07:22:00.562Z,885.9
2022-12-25T07:23:00.415Z,886.0
2022-12-25T07:24:00.635Z,886.0
2022-12-25T07:25:00.379Z,886.0
2022-12-25T07:26:00.383Z,886.0
2022-12-25T07:27:00.419Z,886.0
2022-12-25T07:28:00.415Z,886.0
2022-12-25T07:29:00.412Z,886.0
2022-12-25T07:30:00.558Z,885.9
2022-12-25T07:31:00.406Z,885.9
2022-12-25T07:32:00.644Z,885.9
2022-12-25T07:33:00.509Z,885.9
2022-12-25T07:34:00.460Z,886.0
2022-12-25T07:35:00.566Z,885.9
2022-12-25T07:36:00.590Z,885.9
2022-12-25T07:37:00.598Z,885.9
2022-12-25T07:38:00.410Z,885.9
2022-12-25T07:39:00.446Z,885.9
2022-12-25T07:40:00.407Z,885.9
2022-12-25T07:41:00.455Z,885.9
2022-12-25T07:42:00.531Z,885.9
2022-12-25T07:43:00.402Z,885.9
2022-12-25T07:44:00.376Z,885.9
2022-12-25T07:45:00.411Z,885.9
2022-12-25T07:46:00.515Z,885.9
2022-12-25T07:47:00.410Z,885.8
2022-12-25T07:48:05.120Z,885.9
2022-12-25T07:49:00.408Z,885.8
2022-12-25T07:50:00.418Z,885.9
2022-12-25T07:51:00.385Z,885.9
2022-12-25T07:52:00.585Z,885.8
2022-12-25T07:53:00.474Z,885.8
2022-12-25T07:54:00.545Z,885.8
2022-12-25T07:55:00.401Z,885.8
2022-12-25T07:56:00.410Z,885.8
2022-12-25T07:57:00.485Z,885.8
2022-12-25T07:58:00.476Z,885.8
2022-12-25T07:59:00.389Z,885.8
2022-12-25T08:00:00.546Z,885.8
2022-12-25T08:01:00.586Z,885.8
2022-12-25T08:02:00.665Z,885.8
2022-12-25T08:03:00.801Z,885.8
2022-12-25T08:04:00.517Z,885.8
2022-12-25T08:05:00.443Z,885.8
2022-12-25T08:06:00.523Z,885.8
2022-12-25T08:07:00.500Z,885.8
2022-12-25T08:08:00.550Z,885.7
2022-12-25T08:09:00.535Z,885.8
2022-12-25T08:10:00.457Z,885.7
2022-12-25T08:11:00.490Z,885.7
2022-12-25T08:12:00.742Z,885.7
2022-12-25T08:13:00.525Z,885.7
2022-12-25T08:14:00.379Z,885.7
2022-12-25T08:15:00.465Z,885.7
2022-12-25T08:16:00.501Z,885.7
2022-12-25T08:17:00.493Z,885.7
2022-12-25T08:18:00.536Z,885.7
2022-12-25T08:19:00.433Z,885.7
2022-12-25T08:20:00.412Z,885.7
2022-12-25T08:21:00.402Z,885.7
2022-12-25T08:22:00.455Z,885.7
2022-12-25T08:23:00.381Z,885.7
2022-12-25T08:24:00.579Z,885.6
2022-12-25T08:25:00.539Z,885.7
2022-12-25T08:26:04.945Z,885.6
2022-12-25T08:27:00.379Z,885.6
2022-12-25T08:28:00.443Z,885.6
2022-12-25T08:29:00.411Z,885.6
2022-12-25T08:30:00.574Z,885.6
2022-12-25T08:31:00.473Z,885.6
2022-12-25T08:32:00.428Z,885.6
2022-12-25T08:33:00.492Z,885.5
2022-12-25T08:34:00.399Z,885.5
2022-12-25T08:35:00.442Z,885.6
2022-12-25T08:36:00.742Z,885.5
2022-12-25T08:37:00.407Z,885.5
2022-12-25T08:38:00.453Z,885.5
2022-12-25T08:39:03.321Z,885.5
2022-12-25T08:40:00.578Z,885.5
2022-12-25T08:41:01.113Z,885.5
2022-12-25T08:42:00.605Z,885.5
2022-12-25T08:43:00.496Z,885.5
2022-12-25T08:44:00.808Z,885.5
2022-12-25T08:45:00.483Z,885.5
2022-12-25T08:46:00.942Z,885.5
2022-12-25T08:47:00.619Z,885.5
2022-12-25T08:48:01.141Z,885.5
2022-12-25T08:49:00.405Z,885.5
2022-12-25T08:50:00.378Z,885.4
2022-12-25T08:51:00.378Z,885.4
2022-12-25T08:52:00.404Z,885.4
2022-12-25T08:53:00.568Z,885.4
2022-12-25T08:54:00.954Z,885.4
2022-12-25T08:55:00.443Z,885.4
2022-12-25T08:56:00.563Z,885.4
2022-12-25T08:57:02.985Z,885.4
2022-12-25T08:58:00.379Z,885.4
2022-12-25T08:59:00.462Z,885.4
2022-12-25T09:00:00.632Z,885.4
2022-12-25T09:01:00.646Z,885.4
2022-12-25T09:02:00.578Z,885.4
2022-12-25T09:03:00.871Z,885.3
2022-12-25T09:04:00.424Z,885.4
2022-12-25T09:05:00.375Z,885.4
2022-12-25T09:06:00.619Z,885.4
2022-12-25T09:07:00.417Z,885.3
2022-12-25T09:08:00.416Z,885.3
2022-12-25T09:09:00.416Z,885.3
2022-12-25T09:10:00.397Z,885.3
2022-12-25T09:11:00.439Z,885.3
2022-12-25T09:12:00.541Z,885.3
2022-12-25T09:13:00.591Z,885.2
2022-12-25T09:14:00.409Z,885.3
2022-12-25T09:15:00.408Z,885.3
2022-12-25T09:16:00.471Z,885.2
2022-12-25T09:17:00.436Z,885.2
2022-12-25T09:18:00.606Z,885.2
2022-12-25T09:19:00.431Z,885.2
2022-12-25T09:20:00.427Z,885.2
2022-12-25T09:21:00.496Z,885.2
2022-12-25T09:22:00.448Z,885.2
2022-12-25T09:23:00.424Z,885.2
2022-12-25T09:24:00.607Z,885.2
2022-12-25T09:25:00.449Z,885.2
2022-12-25T09:26:00.455Z,885.2
2022-12-25T09:27:00.411Z,885.2
2022-12-25T09:28:00.555Z,885.2
2022-12-25T09:29:00.408Z,885.2
2022-12-25T09:30:00.557Z,885.2
2022-12-25T09:31:00.493Z,885.1
2022-12-25T09:32:00.403Z,885.1
2022-12-25T09:33:00.406Z,885.1
2022-12-25T09:34:00.412Z,885.1
2022-12-25T09:35:00.438Z,885.2
2022-12-25T09:36:00.630Z,885.1
2022-12-25T09:37:00.436Z,885.1
2022-12-25T09:38:00.523Z,885.1
2022-12-25T09:39:00.404Z,885.1
2022-12-25T09:40:00.458Z,885.1
2022-12-25T09:41:00.418Z,885.2
2022-12-25T09:42:00.605Z,885.1
2022-12-25T09:43:00.504Z,885.1
2022-12-25T09:44:00.882Z,885.2
2022-12-25T09:45:00.518Z,885.1
2022-12-25T09:46:00.558Z,885.2
2022-12-25T09:47:00.580Z,885.2
2022-12-25T09:48:01.077Z,885.1
2022-12-25T09:49:00.480Z,885.1
2022-12-25T09:50:00.375Z,885.1
2022-12-25T09:51:00.374Z,885.1
2022-12-25T09:52:00.402Z,885.1
2022-12-25T09:53:00.463Z,885.1
2022-12-25T09:54:00.557Z,885.1
2022-12-25T09:55:00.430Z,885.1
2022-12-25T09:56:00.398Z,885.1
2022-12-25T09:57:00.410Z,885.1
2022-12-25T09:58:00.435Z,885.2
2022-12-25T09:59:00.587Z,885.1
2022-12-25T10:00:00.544Z,885.1
2022-12-25T10:01:00.386Z,885.1
2022-12-25T10:02:00.566Z,885.1
2022-12-25T10:03:00.977Z,885.1
2022-12-25T10:04:00.427Z,885.2
2022-12-25T10:05:00.498Z,885.2
2022-12-25T10:06:00.579Z,885.2
2022-12-25T10:07:00.376Z,885.2
2022-12-25T10:08:00.439Z,885.1
2022-12-25T10:09:00.458Z,885.1
2022-12-25T10:10:00.436Z,885.2
2022-12-25T10:11:00.424Z,885.2
2022-12-25T10:12:00.559Z,885.1
2022-12-25T10:13:00.413Z,885.2
2022-12-25T10:14:00.555Z,885.2
2022-12-25T10:15:00.432Z,885.2
2022-12-25T10:16:00.616Z,885.1
2022-12-25T10:17:00.505Z,885.1
2022-12-25T10:18:00.637Z,885.1
2022-12-25T10:19:00.455Z,885.1
2022-12-25T10:20:00.464Z,885.1
2022-12-25T10:21:00.480Z,885.1
2022-12-25T10:22:00.425Z,885.1
2022-12-25T10:23:00.527Z,885.1
2022-12-25T10:24:00.585Z,885.1
2022-12-25T10:25:00.410Z,885.1
2022-12-25T10:26:00.421Z,885.1
2022-12-25T10:27:00.408Z,885.1
2022-12-25T10:28:00.551Z,885.1
2022-12-25T10:29:00.643Z,885.1
2022-12-25T10:30:00.528Z,885.1
2022-12-25T10:31:00.531Z,885.1
2022-12-25T10:32:00.411Z,885.1
2022-12-25T10:33:00.433Z,885.1
2022-12-25T10:34:00.413Z,885.1
2022-12-25T10:35:00.394Z,885.1
2022-12-25T10:36:00.635Z,885.1
2022-12-25T10:37:00.390Z,885.1
2022-12-25T10:38:00.420Z,885.1
2022-12-25T10:39:00.415Z,885.1
2022-12-25T10:40:00.578Z,885.0
2022-12-25T10:41:00.386Z,885.1
2022-12-25T10:42:00.649Z,885.1
2022-12-25T10:43:00.470Z,885.1
2022-12-25T10:44:00.499Z,885.0
2022-12-25T10:45:00.446Z,885.1
2022-12-25T10:46:00.545Z,885.1
2022-12-25T10:47:00.445Z,885.1
2022-12-25T10:48:05.003Z,885.0
2022-12-25T10:49:00.459Z,885.1
2022-12-25T10:50:00.412Z,885.0
2022-12-25T10:51:00.406Z,885.0
2022-12-25T10:52:00.447Z,885.0
2022-12-25T10:53:00.436Z,885.0
2022-12-25T10:54:00.510Z,885.0
2022-12-25T10:55:00.408Z,885.0
2022-12-25T10:56:00.406Z,885.0
2022-12-25T10:57:00.443Z,885.0
2022-12-25T10:58:00.448Z,885.0
2022-12-25T10:59:00.611Z,885.0
2022-12-25T11:00:01.043Z,885.0
2022-12-25T11:01:00.529Z,885.0
2022-12-25T11:02:00.561Z,885.0
2022-12-25T11:03:00.966Z,885.0
2022-12-25T11:04:00.658Z,885.0
2022-12-25T11:05:00.481Z,885.0
2022-12-25T11:06:00.586Z,885.0
2022-12-25T11:07:00.447Z,885.0
2022-12-25T11:08:00.409Z,885.0
2022-12-25T11:09:00.459Z,885.0
2022-12-25T11:10:04.664Z,885.0
2022-12-25T11:11:00.540Z,885.0
2022-12-25T11:12:00.602Z,885.0
2022-12-25T11:13:00.410Z,885.0
2022-12-25T11:14:00.533Z,885.0
2022-12-25T11:15:00.408Z,885.0
2022-12-25T11:16:00.426Z,885.0
2022-12-25T11:17:00.832Z,885.0
2022-12-25T11:18:00.621Z,885.0
2022-12-25T11:19:00.483Z,885.0
2022-12-25T11:20:00.454Z,885.0
2022-12-25T11:21:00.425Z,885.0
2022-12-25T11:22:00.562Z,885.0
2022-12-25T11:23:00.485Z,885.0
2022-12-25T11:24:00.801Z,885.0
2022-12-25T11:25:00.427Z,885.0
2022-12-25T11:26:00.610Z,885.0
2022-12-25T11:27:00.503Z,885.0
2022-12-25T11:28:00.454Z,885.1
2022-12-25T11:29:00.675Z,885.0
2022-12-25T11:30:00.694Z,885.0
2022-12-25T11:31:00.486Z,885.1
2022-12-25T11:32:00.447Z,885.1
2022-12-25T11:33:00.487Z,885.0
2022-12-25T11:34:00.462Z,885.1
2022-12-25T11:35:00.410Z,885.1
2022-12-25T11:36:00.622Z,885.1
2022-12-25T11:37:00.591Z,885.0
2022-12-25T11:38:00.536Z,885.0
2022-12-25T11:39:00.410Z,885.1
2022-12-25T11:40:00.461Z,885.0
2022-12-25T11:41:00.565Z,885.0
2022-12-25T11:42:00.710Z,885.1
2022-12-25T11:43:07.534Z,885.0
2022-12-25T11:44:00.702Z,885.0
2022-12-25T11:45:00.401Z,885.0
2022-12-25T11:46:00.761Z,885.0
2022-12-25T11:47:00.480Z,885.0
2022-12-25T11:48:00.895Z,885.1
2022-12-25T11:49:00.447Z,885.0
2022-12-25T11:50:01.134Z,885.1
2022-12-25T11:51:00.467Z,885.1
2022-12-25T11:52:00.432Z,885.1
2022-12-25T11:53:00.484Z,885.1
2022-12-25T11:54:00.688Z,885.1
2022-12-25T11:55:00.436Z,885.1
2022-12-25T11:56:00.405Z,885.1
2022-12-25T11:57:00.413Z,885.1
2022-12-25T11:58:00.429Z,885.1
2022-12-25T11:59:00.541Z,885.1
2022-12-25T12:00:00.718Z,885.1
2022-12-25T12:01:00.377Z,885.1
2022-12-25T12:02:00.613Z,885.1
2022-12-25T12:03:00.690Z,885.1
2022-12-25T12:04:00.598Z,885.1
2022-12-25T12:05:00.437Z,885.1
2022-12-25T12:06:00.546Z,885.1
2022-12-25T12:07:00.465Z,885.2
2022-12-25T12:08:00.437Z,885.1
2022-12-25T12:09:00.411Z,885.2
2022-12-25T12:10:00.427Z,885.1
2022-12-25T12:11:00.456Z,885.1
2022-12-25T12:12:00.571Z,885.1
2022-12-25T12:13:00.413Z,885.1
2022-12-25T12:14:00.634Z,885.1
2022-12-25T12:15:00.459Z,885.2
2022-12-25T12:16:00.454Z,885.1
2022-12-25T12:17:00.576Z,885.2
2022-12-25T12:18:00.815Z,885.2
2022-12-25T12:19:00.467Z,885.2
2022-12-25T12:20:00.617Z,885.2
2022-12-25T12:21:00.731Z,885.2
2022-12-25T12:22:00.537Z,885.2
2022-12-25T12:23:00.799Z,885.2
2022-12-25T12:24:00.938Z,885.2
2022-12-25T12:25:00.669Z,885.2
2022-12-25T12:26:00.430Z,885.2
2022-12-25T12:27:00.441Z,885.2
2022-12-25T12:28:05.415Z,885.1
2022-12-25T12:29:00.536Z,885.1
2022-12-25T12:30:00.918Z,885.2
2022-12-25T12:31:00.462Z,885.2
2022-12-25T12:32:00.472Z,885.2
2022-12-25T12:33:00.469Z,885.2
2022-12-25T12:34:00.434Z,885.2
2022-12-25T12:35:00.396Z,885.2
2022-12-25T12:36:00.632Z,885.2
2022-12-25T12:37:00.385Z,885.2
2022-12-25T12:38:00.434Z,885.2
2022-12-25T12:39:00.568Z,885.2
2022-12-25T12:40:00.462Z,885.2
2022-12-25T12:41:00.523Z,885.2
2022-12-25T12:42:00.498Z,885.2
2022-12-25T12:43:00.417Z,885.2
2022-12-25T12:44:00.981Z,885.2
2022-12-25T12:45:00.579Z,885.2
2022-12-25T12:46:00.516Z,885.2
2022-12-25T12:47:00.436Z,885.3
2022-12-25T12:48:00.555Z,885.2
2022-12-25T12:49:00.459Z,885.3
2022-12-25T12:50:00.413Z,885.2
2022-12-25T12:51:00.411Z,885.2
2022-12-25T12:52:00.431Z,885.2